THY115 LTFE-OLBA
Flight info
| Callsign | THY115 |
|---|---|
| Flight time | 1h 11m |
| Altitude | 37000 |
| Route | DAL UN127 EXELA UM601 EVENO M601 LCA DCT KUKLA |
| Aircraft | B77W/H-SDE1E2E3FGHIJ2J3J4J5M1RWXY/LB1D1 |
Departure
| Time | 2026-05-03 20:15 |
|---|---|
| Airport | Milas Bodrum International Airport (LTFE) |
Arrival
| Time | 2026-05-03 21:26 |
|---|---|
| Airport | Beirut Rafic Hariri International Airport (OLBA) |
| Time | Latitude | Longitude | Altitude | Speed | Heading |
|---|---|---|---|---|---|
| 2026-05-03 20:15 | 37.15004 | 27.57874 | 13776 ft | 384 kts | 136° |
| 2026-05-03 20:15 | 37.13124 | 27.60278 | 14463 ft | 390 kts | 122° |
| 2026-05-03 20:15 | 37.11954 | 27.63328 | 15512 ft | 387 kts | 102° |
| 2026-05-03 20:15 | 37.11556 | 27.66643 | 16584 ft | 382 kts | 91° |
| 2026-05-03 20:16 | 37.11295 | 27.69985 | 17392 ft | 394 kts | 94° |
| 2026-05-03 20:16 | 37.10909 | 27.73419 | 18331 ft | 400 kts | 96° |
| 2026-05-03 20:16 | 37.10478 | 27.76889 | 19328 ft | 404 kts | 96° |
| 2026-05-03 20:16 | 37.10040 | 27.80384 | 20354 ft | 406 kts | 96° |
| 2026-05-03 20:17 | 37.09610 | 27.83862 | 21311 ft | 410 kts | 96° |
| 2026-05-03 20:17 | 37.09179 | 27.87412 | 22205 ft | 413 kts | 96° |
| 2026-05-03 20:17 | 37.08748 | 27.90986 | 23088 ft | 416 kts | 96° |
| 2026-05-03 20:17 | 37.08314 | 27.94604 | 23930 ft | 420 kts | 96° |
| 2026-05-03 20:18 | 37.07882 | 27.98189 | 24723 ft | 423 kts | 96° |
| 2026-05-03 20:18 | 37.07436 | 28.01874 | 25330 ft | 431 kts | 96° |
| 2026-05-03 20:18 | 37.06907 | 28.05623 | 25774 ft | 443 kts | 102° |
| 2026-05-03 20:18 | 37.05941 | 28.09336 | 26300 ft | 452 kts | 111° |
| 2026-05-03 20:19 | 37.05075 | 28.11728 | 26726 ft | 456 kts | 115° |
| 2026-05-03 20:19 | 37.03454 | 28.15151 | 27353 ft | 461 kts | 123° |
| 2026-05-03 20:19 | 37.01036 | 28.19582 | 28093 ft | 468 kts | 124° |
| 2026-05-03 20:19 | 36.99167 | 28.22950 | 28569 ft | 474 kts | 124° |
| 2026-05-03 20:20 | 36.97910 | 28.25218 | 28887 ft | 478 kts | 125° |
| 2026-05-03 20:20 | 36.96007 | 28.28675 | 29384 ft | 483 kts | 125° |
| 2026-05-03 20:20 | 36.94099 | 28.32163 | 29868 ft | 488 kts | 125° |
| 2026-05-03 20:20 | 36.91552 | 28.36848 | 30440 ft | 494 kts | 125° |
| 2026-05-03 20:21 | 36.90266 | 28.39216 | 30668 ft | 498 kts | 125° |
| 2026-05-03 20:21 | 36.88307 | 28.42827 | 31004 ft | 503 kts | 125° |
| 2026-05-03 20:21 | 36.85695 | 28.47639 | 31548 ft | 506 kts | 126° |
| 2026-05-03 20:21 | 36.84356 | 28.50101 | 31892 ft | 506 kts | 126° |
| 2026-05-03 20:22 | 36.82403 | 28.53690 | 32438 ft | 504 kts | 126° |
| 2026-05-03 20:22 | 36.80429 | 28.57311 | 32996 ft | 503 kts | 126° |
| 2026-05-03 20:22 | 36.78455 | 28.60929 | 33440 ft | 504 kts | 126° |
| 2026-05-03 20:22 | 36.76468 | 28.64564 | 33849 ft | 506 kts | 126° |
| 2026-05-03 20:23 | 36.74497 | 28.68171 | 34285 ft | 506 kts | 126° |
| 2026-05-03 20:23 | 36.72514 | 28.71794 | 34766 ft | 505 kts | 126° |
| 2026-05-03 20:23 | 36.70494 | 28.75381 | 35196 ft | 504 kts | 130° |
| 2026-05-03 20:23 | 36.68247 | 28.78728 | 35579 ft | 503 kts | 135° |
| 2026-05-03 20:24 | 36.65803 | 28.81766 | 35970 ft | 500 kts | 141° |
| 2026-05-03 20:24 | 36.63148 | 28.84579 | 36370 ft | 499 kts | 143° |
| 2026-05-03 20:24 | 36.60483 | 28.87353 | 36730 ft | 500 kts | 143° |
| 2026-05-03 20:25 | 36.55125 | 28.92953 | 36780 ft | 499 kts | 143° |
| 2026-05-03 20:25 | 36.49917 | 28.98464 | 36765 ft | 488 kts | 143° |
| 2026-05-03 20:26 | 36.44736 | 29.03951 | 36785 ft | 489 kts | 143° |
| 2026-05-03 20:26 | 36.39560 | 29.09419 | 36784 ft | 491 kts | 143° |
| 2026-05-03 20:27 | 36.34342 | 29.14925 | 36783 ft | 492 kts | 143° |
| 2026-05-03 20:27 | 36.29141 | 29.20391 | 36790 ft | 492 kts | 143° |
| 2026-05-03 20:28 | 36.23897 | 29.25863 | 36785 ft | 492 kts | 144° |
| 2026-05-03 20:28 | 36.18641 | 29.31343 | 36787 ft | 491 kts | 144° |
| 2026-05-03 20:29 | 36.13407 | 29.36715 | 36790 ft | 490 kts | 144° |
| 2026-05-03 20:29 | 36.08122 | 29.42078 | 36776 ft | 489 kts | 145° |
| 2026-05-03 20:30 | 36.02882 | 29.47405 | 36776 ft | 488 kts | 145° |
| 2026-05-03 20:30 | 35.97798 | 29.52926 | 36769 ft | 493 kts | 136° |
| 2026-05-03 20:31 | 35.94045 | 29.60127 | 36786 ft | 504 kts | 117° |
| 2026-05-03 20:31 | 35.91782 | 29.68345 | 36786 ft | 509 kts | 110° |
| 2026-05-03 20:32 | 35.89640 | 29.76703 | 36778 ft | 510 kts | 111° |
| 2026-05-03 20:32 | 35.87416 | 29.84984 | 36779 ft | 510 kts | 112° |
| 2026-05-03 20:33 | 35.85140 | 29.93281 | 36776 ft | 510 kts | 112° |
| 2026-05-03 20:33 | 35.82886 | 30.01531 | 36776 ft | 510 kts | 111° |
| 2026-05-03 20:34 | 35.80762 | 30.09887 | 36773 ft | 510 kts | 110° |
| 2026-05-03 20:34 | 35.78715 | 30.18200 | 36767 ft | 509 kts | 110° |
| 2026-05-03 20:35 | 35.76629 | 30.26549 | 36767 ft | 509 kts | 111° |
| 2026-05-03 20:35 | 35.74518 | 30.34887 | 36773 ft | 509 kts | 111° |
| 2026-05-03 20:36 | 35.72416 | 30.43166 | 36764 ft | 509 kts | 111° |
| 2026-05-03 20:36 | 35.70306 | 30.51458 | 36771 ft | 509 kts | 111° |
| 2026-05-03 20:37 | 35.68174 | 30.59809 | 36777 ft | 510 kts | 111° |
| 2026-05-03 20:37 | 35.66049 | 30.68100 | 36779 ft | 511 kts | 111° |
| 2026-05-03 20:38 | 35.63905 | 30.76447 | 36778 ft | 512 kts | 112° |
| 2026-05-03 20:38 | 35.61766 | 30.84741 | 36780 ft | 512 kts | 112° |
| 2026-05-03 20:39 | 35.59626 | 30.93133 | 36790 ft | 513 kts | 112° |
| 2026-05-03 20:39 | 35.57517 | 31.01483 | 36796 ft | 513 kts | 112° |
| 2026-05-03 20:40 | 35.55391 | 31.09869 | 36797 ft | 513 kts | 112° |
| 2026-05-03 20:40 | 35.53268 | 31.18197 | 36801 ft | 513 kts | 112° |
| 2026-05-03 20:41 | 35.51123 | 31.26568 | 36807 ft | 512 kts | 112° |
| 2026-05-03 20:41 | 35.48989 | 31.34878 | 36809 ft | 512 kts | 112° |
| 2026-05-03 20:42 | 35.46852 | 31.43174 | 36815 ft | 511 kts | 112° |
| 2026-05-03 20:42 | 35.44696 | 31.51515 | 36817 ft | 511 kts | 112° |
| 2026-05-03 20:43 | 35.42552 | 31.59782 | 36823 ft | 510 kts | 113° |
| 2026-05-03 20:43 | 35.40393 | 31.68086 | 36827 ft | 510 kts | 113° |
| 2026-05-03 20:44 | 35.38234 | 31.76358 | 36832 ft | 509 kts | 113° |
| 2026-05-03 20:44 | 35.36070 | 31.84628 | 36834 ft | 509 kts | 113° |
| 2026-05-03 20:45 | 35.33899 | 31.92899 | 36846 ft | 509 kts | 113° |
| 2026-05-03 20:45 | 35.31736 | 32.01119 | 36848 ft | 510 kts | 113° |
| 2026-05-03 20:46 | 35.29556 | 32.09390 | 36847 ft | 509 kts | 113° |
| 2026-05-03 20:46 | 35.27410 | 32.17602 | 36851 ft | 510 kts | 114° |
| 2026-05-03 20:47 | 35.25244 | 32.25896 | 36854 ft | 510 kts | 114° |
| 2026-05-03 20:47 | 35.23071 | 32.34182 | 36866 ft | 510 kts | 114° |
| 2026-05-03 20:48 | 35.20896 | 32.42441 | 36872 ft | 510 kts | 114° |
| 2026-05-03 20:48 | 35.18719 | 32.50678 | 36869 ft | 511 kts | 114° |
| 2026-05-03 20:49 | 35.16535 | 32.58922 | 36867 ft | 511 kts | 114° |
| 2026-05-03 20:49 | 35.14342 | 32.67173 | 36885 ft | 511 kts | 114° |
| 2026-05-03 20:50 | 35.12144 | 32.75416 | 36882 ft | 511 kts | 114° |
| 2026-05-03 20:50 | 35.09926 | 32.83706 | 36875 ft | 512 kts | 114° |
| 2026-05-03 20:51 | 35.07723 | 32.91926 | 36869 ft | 512 kts | 115° |
| 2026-05-03 20:51 | 35.05429 | 33.00164 | 36864 ft | 510 kts | 116° |
| 2026-05-03 20:52 | 35.03048 | 33.08358 | 36354 ft | 514 kts | 116° |
| 2026-05-03 20:52 | 35.01879 | 33.12424 | 35925 ft | 509 kts | 116° |
| 2026-05-03 20:52 | 35.00717 | 33.16477 | 35489 ft | 502 kts | 116° |
| 2026-05-03 20:52 | 34.99564 | 33.20469 | 35044 ft | 497 kts | 117° |
| 2026-05-03 20:53 | 34.98409 | 33.24433 | 34606 ft | 492 kts | 117° |
| 2026-05-03 20:53 | 34.97269 | 33.28342 | 34170 ft | 487 kts | 117° |
| 2026-05-03 20:53 | 34.96153 | 33.32177 | 33737 ft | 482 kts | 117° |
| 2026-05-03 20:53 | 34.95041 | 33.36026 | 33299 ft | 478 kts | 117° |
| 2026-05-03 20:54 | 34.93949 | 33.39843 | 32866 ft | 474 kts | 117° |
| 2026-05-03 20:54 | 34.91778 | 33.47372 | 32019 ft | 465 kts | 118° |
| 2026-05-03 20:54 | 34.90705 | 33.51024 | 31603 ft | 462 kts | 118° |
| 2026-05-03 20:55 | 34.89623 | 33.54705 | 31187 ft | 458 kts | 118° |
| 2026-05-03 20:55 | 34.88554 | 33.58340 | 30770 ft | 454 kts | 118° |
| 2026-05-03 20:55 | 34.87370 | 33.61856 | 30363 ft | 443 kts | 125° |
| 2026-05-03 20:55 | 34.85950 | 33.65135 | 29952 ft | 431 kts | 131° |
| 2026-05-03 20:56 | 34.84333 | 33.68119 | 29549 ft | 423 kts | 134° |
| 2026-05-03 20:56 | 34.82674 | 33.71074 | 29130 ft | 420 kts | 134° |
| 2026-05-03 20:56 | 34.81027 | 33.74003 | 28712 ft | 417 kts | 134° |
| 2026-05-03 20:56 | 34.79389 | 33.76920 | 28297 ft | 414 kts | 134° |
| 2026-05-03 20:57 | 34.77793 | 33.79772 | 27882 ft | 411 kts | 134° |
| 2026-05-03 20:57 | 34.76185 | 33.82654 | 27464 ft | 409 kts | 134° |
| 2026-05-03 20:57 | 34.74591 | 33.85513 | 27054 ft | 406 kts | 134° |
| 2026-05-03 20:57 | 34.73008 | 33.88354 | 26645 ft | 404 kts | 134° |
| 2026-05-03 20:58 | 34.71451 | 33.91150 | 26243 ft | 401 kts | 134° |
| 2026-05-03 20:58 | 34.69887 | 33.93955 | 25844 ft | 399 kts | 134° |
| 2026-05-03 20:58 | 34.68330 | 33.96745 | 25428 ft | 397 kts | 134° |
| 2026-05-03 20:58 | 34.66796 | 33.99491 | 25035 ft | 395 kts | 134° |
| 2026-05-03 20:59 | 34.65255 | 34.02256 | 24616 ft | 393 kts | 134° |
| 2026-05-03 20:59 | 34.63716 | 34.04996 | 24210 ft | 390 kts | 134° |
| 2026-05-03 20:59 | 34.62212 | 34.07687 | 23833 ft | 388 kts | 134° |
| 2026-05-03 20:59 | 34.60697 | 34.10396 | 23432 ft | 385 kts | 134° |
| 2026-05-03 21:00 | 34.59187 | 34.13088 | 23051 ft | 383 kts | 134° |
| 2026-05-03 21:00 | 34.58679 | 34.13996 | 22890 ft | 382 kts | 134° |
| 2026-05-03 21:00 | 34.56202 | 34.18413 | 22252 ft | 379 kts | 134° |
| 2026-05-03 21:00 | 34.54720 | 34.21051 | 21853 ft | 377 kts | 134° |
| 2026-05-03 21:01 | 34.53247 | 34.23671 | 21472 ft | 375 kts | 134° |
| 2026-05-03 21:01 | 34.51798 | 34.26248 | 21095 ft | 373 kts | 134° |
| 2026-05-03 21:01 | 34.50335 | 34.28845 | 20697 ft | 371 kts | 135° |
| 2026-05-03 21:01 | 34.48879 | 34.31427 | 20317 ft | 369 kts | 135° |
| 2026-05-03 21:02 | 34.47430 | 34.33995 | 19916 ft | 368 kts | 135° |
| 2026-05-03 21:02 | 34.45984 | 34.36558 | 19531 ft | 366 kts | 135° |
| 2026-05-03 21:02 | 34.44559 | 34.39080 | 19132 ft | 365 kts | 135° |
| 2026-05-03 21:02 | 34.43126 | 34.41618 | 18738 ft | 363 kts | 135° |
| 2026-05-03 21:03 | 34.41700 | 34.44140 | 18343 ft | 362 kts | 135° |
| 2026-05-03 21:03 | 34.40278 | 34.46652 | 17958 ft | 360 kts | 135° |
| 2026-05-03 21:03 | 34.38874 | 34.49129 | 17571 ft | 361 kts | 134° |
| 2026-05-03 21:03 | 34.37456 | 34.51643 | 17169 ft | 359 kts | 134° |
| 2026-05-03 21:04 | 34.36075 | 34.54129 | 16772 ft | 358 kts | 134° |
| 2026-05-03 21:04 | 34.34660 | 34.56611 | 16390 ft | 358 kts | 134° |
| 2026-05-03 21:04 | 34.33239 | 34.59089 | 15981 ft | 355 kts | 134° |
| 2026-05-03 21:04 | 34.31835 | 34.61544 | 15594 ft | 352 kts | 134° |
| 2026-05-03 21:05 | 34.30433 | 34.63988 | 15202 ft | 352 kts | 133° |
| 2026-05-03 21:05 | 34.29067 | 34.66398 | 14816 ft | 351 kts | 133° |
| 2026-05-03 21:05 | 34.27681 | 34.68842 | 14424 ft | 350 kts | 133° |
| 2026-05-03 21:05 | 34.26297 | 34.71273 | 14030 ft | 349 kts | 133° |
| 2026-05-03 21:06 | 34.24945 | 34.73670 | 13632 ft | 346 kts | 130° |
| 2026-05-03 21:06 | 34.24014 | 34.76391 | 13247 ft | 356 kts | 108° |
| 2026-05-03 21:06 | 34.23620 | 34.79353 | 12900 ft | 355 kts | 104° |
| 2026-05-03 21:06 | 34.23252 | 34.82268 | 12537 ft | 354 kts | 105° |
| 2026-05-03 21:07 | 34.22866 | 34.85215 | 12146 ft | 354 kts | 105° |
| 2026-05-03 21:07 | 34.22472 | 34.88154 | 11765 ft | 354 kts | 105° |
| 2026-05-03 21:07 | 34.22070 | 34.91097 | 11387 ft | 353 kts | 105° |
| 2026-05-03 21:07 | 34.21663 | 34.94019 | 10993 ft | 351 kts | 104° |
| 2026-05-03 21:08 | 34.21392 | 34.95949 | 10739 ft | 350 kts | 104° |
| 2026-05-03 21:08 | 34.20844 | 34.99805 | 10277 ft | 348 kts | 104° |
| 2026-05-03 21:08 | 34.20575 | 35.01697 | 10174 ft | 342 kts | 104° |
| 2026-05-03 21:08 | 34.20189 | 35.04484 | 10041 ft | 330 kts | 104° |
| 2026-05-03 21:09 | 34.19806 | 35.07162 | 9960 ft | 316 kts | 104° |
| 2026-05-03 21:09 | 34.19450 | 35.09737 | 9928 ft | 307 kts | 104° |
| 2026-05-03 21:09 | 34.19083 | 35.12276 | 9931 ft | 305 kts | 105° |
| 2026-05-03 21:09 | 34.18596 | 35.15630 | 9934 ft | 306 kts | 104° |
| 2026-05-03 21:10 | 34.18353 | 35.17317 | 9938 ft | 306 kts | 104° |
| 2026-05-03 21:10 | 34.17990 | 35.19846 | 9937 ft | 306 kts | 104° |
| 2026-05-03 21:10 | 34.17628 | 35.22390 | 9933 ft | 306 kts | 104° |
| 2026-05-03 21:10 | 34.17261 | 35.24926 | 9934 ft | 306 kts | 105° |
| 2026-05-03 21:11 | 34.16897 | 35.27429 | 9929 ft | 306 kts | 104° |
| 2026-05-03 21:11 | 34.16531 | 35.29959 | 9944 ft | 305 kts | 104° |
| 2026-05-03 21:11 | 34.16167 | 35.32487 | 9955 ft | 305 kts | 104° |
| 2026-05-03 21:11 | 34.15801 | 35.35014 | 9952 ft | 306 kts | 104° |
| 2026-05-03 21:12 | 34.15433 | 35.37559 | 9942 ft | 307 kts | 105° |
| 2026-05-03 21:12 | 34.15067 | 35.40074 | 9940 ft | 308 kts | 105° |
| 2026-05-03 21:12 | 34.14697 | 35.42621 | 9936 ft | 308 kts | 104° |
| 2026-05-03 21:12 | 34.14149 | 35.45072 | 9923 ft | 293 kts | 126° |
| 2026-05-03 21:13 | 34.13421 | 35.46219 | 9948 ft | 282 kts | 147° |
| 2026-05-03 21:13 | 34.12391 | 35.46978 | 9952 ft | 272 kts | 169° |
| 2026-05-03 21:14 | 34.10577 | 35.47120 | 9955 ft | 257 kts | 193° |
| 2026-05-03 21:14 | 34.08772 | 35.47005 | 9949 ft | 262 kts | 185° |
| 2026-05-03 21:14 | 34.06937 | 35.47111 | 9729 ft | 264 kts | 183° |
| 2026-05-03 21:14 | 34.05099 | 35.47243 | 9353 ft | 264 kts | 183° |
| 2026-05-03 21:15 | 34.03294 | 35.47360 | 9176 ft | 258 kts | 183° |
| 2026-05-03 21:15 | 34.01534 | 35.47470 | 9075 ft | 248 kts | 183° |
| 2026-05-03 21:15 | 33.99846 | 35.47516 | 8885 ft | 236 kts | 193° |
| 2026-05-03 21:15 | 33.98352 | 35.46870 | 8568 ft | 224 kts | 217° |
| 2026-05-03 21:16 | 33.97181 | 35.45667 | 8301 ft | 219 kts | 232° |
| 2026-05-03 21:16 | 33.96390 | 35.44113 | 8002 ft | 217 kts | 249° |
| 2026-05-03 21:16 | 33.96086 | 35.42330 | 7664 ft | 220 kts | 267° |
| 2026-05-03 21:16 | 33.96329 | 35.40534 | 7376 ft | 223 kts | 286° |
| 2026-05-03 21:17 | 33.97131 | 35.38898 | 7055 ft | 232 kts | 306° |
| 2026-05-03 21:17 | 33.98383 | 35.37627 | 6772 ft | 238 kts | 322° |
| 2026-05-03 21:17 | 33.99934 | 35.36876 | 6435 ft | 247 kts | 347° |
| 2026-05-03 21:17 | 34.01663 | 35.36780 | 6066 ft | 251 kts | 353° |
| 2026-05-03 21:18 | 34.03390 | 35.36704 | 5720 ft | 251 kts | 352° |
| 2026-05-03 21:18 | 34.05135 | 35.36606 | 5449 ft | 250 kts | 352° |
| 2026-05-03 21:18 | 34.06869 | 35.36509 | 5215 ft | 247 kts | 354° |
| 2026-05-03 21:18 | 34.08571 | 35.36857 | 4787 ft | 256 kts | 22° |
| 2026-05-03 21:19 | 34.10015 | 35.38108 | 4501 ft | 257 kts | 47° |
| 2026-05-03 21:19 | 34.10974 | 35.39905 | 4230 ft | 255 kts | 71° |
| 2026-05-03 21:19 | 34.11280 | 35.41980 | 3984 ft | 248 kts | 96° |
| 2026-05-03 21:19 | 34.10889 | 35.43950 | 3714 ft | 239 kts | 121° |
| 2026-05-03 21:20 | 34.09913 | 35.45513 | 3451 ft | 230 kts | 143° |
| 2026-05-03 21:20 | 34.08625 | 35.46581 | 3178 ft | 220 kts | 162° |
| 2026-05-03 21:20 | 34.07192 | 35.47003 | 2915 ft | 212 kts | 175° |
| 2026-05-03 21:20 | 34.05715 | 35.47257 | 2672 ft | 215 kts | 178° |
| 2026-05-03 21:21 | 34.04217 | 35.47410 | 2435 ft | 217 kts | 180° |
| 2026-05-03 21:21 | 34.02715 | 35.47516 | 2217 ft | 214 kts | 180° |
| 2026-05-03 21:21 | 34.01268 | 35.47608 | 2089 ft | 207 kts | 180° |
| 2026-05-03 21:21 | 33.99854 | 35.47696 | 2008 ft | 199 kts | 180° |
| 2026-05-03 21:22 | 33.98506 | 35.47782 | 1944 ft | 187 kts | 180° |
| 2026-05-03 21:22 | 33.97220 | 35.47863 | 1955 ft | 186 kts | 181° |
| 2026-05-03 21:22 | 33.95931 | 35.47943 | 1947 ft | 184 kts | 181° |
| 2026-05-03 21:22 | 33.94657 | 35.48022 | 1944 ft | 182 kts | 181° |
| 2026-05-03 21:23 | 33.93376 | 35.48103 | 1878 ft | 186 kts | 181° |
| 2026-05-03 21:23 | 33.92089 | 35.48187 | 1616 ft | 181 kts | 181° |
| 2026-05-03 21:23 | 33.90865 | 35.48263 | 1365 ft | 171 kts | 181° |
| 2026-05-03 21:23 | 33.89697 | 35.48335 | 1190 ft | 167 kts | 181° |
| 2026-05-03 21:24 | 33.88572 | 35.48408 | 988 ft | 154 kts | 181° |
| 2026-05-03 21:24 | 33.87556 | 35.48473 | 746 ft | 139 kts | 181° |
| 2026-05-03 21:24 | 33.86657 | 35.48532 | 554 ft | 123 kts | 180° |
| 2026-05-03 21:24 | 33.85767 | 35.48589 | 413 ft | 131 kts | 179° |
| 2026-05-03 21:25 | 33.84854 | 35.48645 | 225 ft | 130 kts | 181° |
| 2026-05-03 21:25 | 33.83946 | 35.48696 | 110 ft | 134 kts | 180° |
| 2026-05-03 21:25 | 33.83030 | 35.48753 | 17 ft | 127 kts | 180° |
| 2026-05-03 21:25 | 33.82294 | 35.48796 | 12 ft | 64 kts | 177° |
| 2026-05-03 21:26 | 33.81942 | 35.48819 | 15 ft | 51 kts | 176° |
| 2026-05-03 21:26 | 33.81725 | 35.48900 | 17 ft | 23 kts | 116° |
| 2026-05-03 21:26 | 33.81717 | 35.48976 | 19 ft | 7 kts | 78° |
| 2026-05-03 21:26 | 33.81741 | 35.49022 | 19 ft | 7 kts | 44° |
| 2026-05-03 21:27 | 33.81782 | 35.49062 | 20 ft | 8 kts | 39° |
| 2026-05-03 21:27 | 33.81848 | 35.49121 | 20 ft | 13 kts | 35° |
| 2026-05-03 21:27 | 33.81920 | 35.49184 | 20 ft | 13 kts | 37° |
| 2026-05-03 21:27 | 33.81994 | 35.49247 | 20 ft | 13 kts | 35° |
| 2026-05-03 21:28 | 33.82070 | 35.49311 | 20 ft | 13 kts | 35° |
| 2026-05-03 21:28 | 33.82145 | 35.49375 | 20 ft | 13 kts | 35° |
| 2026-05-03 21:28 | 33.82221 | 35.49438 | 20 ft | 13 kts | 34° |
| 2026-05-03 21:28 | 33.82296 | 35.49501 | 20 ft | 13 kts | 34° |
| 2026-05-03 21:29 | 33.82372 | 35.49564 | 20 ft | 13 kts | 34° |
| 2026-05-03 21:29 | 33.82458 | 35.49549 | 20 ft | 14 kts | 324° |
| 2026-05-03 21:29 | 33.82477 | 35.49535 | 20 ft | 0 kts | 327° |
| 2026-05-03 21:29 | 33.82475 | 35.49536 | 20 ft | 0 kts | 327° |